Time;durP1;ratioP1;P1;durP2;ratioP2;P2;SDS_P1;SDS_P2;PMS_P1;PMS_P2;Temp;Humidity;BMP_temperature;BMP_pressure;BME280_temperature;BME280_humidity;BME280_pressure;Samples;Min_cycle;Max_cycle;Signal;HPM_P1;HPM_P2
2021/12/03 00:00:41;;;;;;;76.03;45.28;;;3.40;99.90;;;;;;2072334;28;20026;-69
2021/12/03 00:01:42;;;;;;;72.17;41.27;;;3.40;99.90;;;;;;2072731;28;20052;-69
2021/12/03 00:02:42;;;;;;;81.03;45.45;;;3.40;99.90;;;;;;2065001;28;20293;-69
2021/12/03 00:03:43;;;;;;;76.22;46.22;;;3.40;99.90;;;;;;2067762;28;20556;-69
2021/12/03 00:04:44;;;;;;;69.18;45.92;;;3.40;99.90;;;;;;2072494;28;20040;-69
2021/12/03 00:05:45;;;;;;;70.05;46.00;;;3.40;99.90;;;;;;2072092;28;20556;-69
2021/12/03 00:06:45;;;;;;;76.35;46.90;;;3.40;99.90;;;;;;2072893;28;20029;-70
2021/12/03 00:07:46;;;;;;;71.80;43.63;;;3.40;99.90;;;;;;2073129;28;20060;-69
2021/12/03 00:08:47;;;;;;;74.38;44.42;;;3.40;99.90;;;;;;2073066;28;20379;-69
2021/12/03 00:09:48;;;;;;;66.30;43.15;;;3.40;99.90;;;;;;2070575;28;20505;-69
2021/12/03 00:10:54;;;;;;;72.30;43.88;;;3.40;99.90;;;;;;2072002;28;20030;-69
2021/12/03 00:11:54;;;;;;;65.85;42.25;;;3.40;99.90;;;;;;2073158;28;20057;-69
2021/12/03 00:12:57;;;;;;;65.32;41.53;;;3.40;99.90;;;;;;2072901;28;20060;-69
2021/12/03 00:13:58;;;;;;;60.45;39.15;;;3.40;99.90;;;;;;2073072;28;20036;-69
2021/12/03 00:14:59;;;;;;;61.92;40.60;;;3.40;99.90;;;;;;2072501;28;20037;-69
2021/12/03 00:16:00;;;;;;;60.45;40.80;;;3.40;99.90;;;;;;2072729;28;20030;-69
2021/12/03 00:17:02;;;;;;;61.33;39.70;;;3.50;99.90;;;;;;2072807;28;20540;-69
2021/12/03 00:18:03;;;;;;;66.35;40.53;;;3.50;99.90;;;;;;2072993;28;20458;-69
2021/12/03 00:19:04;;;;;;;59.13;41.08;;;3.40;99.90;;;;;;2072475;28;20485;-69
2021/12/03 00:20:07;;;;;;;60.65;42.92;;;3.40;99.90;;;;;;2072088;28;20037;-70
2021/12/03 00:21:10;;;;;;;59.47;39.10;;;3.40;99.90;;;;;;2072459;28;20030;-70
2021/12/03 00:22:10;;;;;;;58.22;39.00;;;3.40;99.90;;;;;;2072586;28;20034;-69
2021/12/03 00:23:11;;;;;;;55.72;38.85;;;3.40;99.90;;;;;;2072874;28;20101;-69
2021/12/03 00:24:12;;;;;;;55.88;37.92;;;3.40;99.90;;;;;;2072726;28;20040;-69
2021/12/03 00:25:13;;;;;;;53.08;38.75;;;3.40;99.90;;;;;;2072820;28;20109;-69
2021/12/03 00:26:14;;;;;;;54.97;36.47;;;3.40;99.90;;;;;;2072919;28;20033;-70
2021/12/03 00:27:14;;;;;;;51.78;36.65;;;3.40;99.90;;;;;;2072782;28;20054;-69
2021/12/03 00:28:15;;;;;;;54.53;37.83;;;3.40;99.90;;;;;;2072667;28;20029;-69
2021/12/03 00:29:16;;;;;;;51.58;35.83;;;3.40;99.90;;;;;;2080139;28;20028;-69
2021/12/03 00:30:17;;;;;;;56.25;37.60;;;3.40;99.90;;;;;;2079411;28;20114;-69
2021/12/03 00:31:18;;;;;;;51.45;37.28;;;3.40;99.90;;;;;;2072581;28;20378;-69
2021/12/03 00:32:19;;;;;;;50.17;37.70;;;3.40;99.90;;;;;;2073039;28;20018;-70
2021/12/03 00:33:19;;;;;;;53.47;38.00;;;3.40;99.90;;;;;;2072713;28;20026;-69
2021/12/03 00:34:20;;;;;;;47.25;36.88;;;3.40;99.90;;;;;;2079452;28;20056;-69
2021/12/03 00:35:21;;;;;;;48.33;35.65;;;3.30;99.90;;;;;;2072521;28;20025;-69
2021/12/03 00:36:23;;;;;;;49.05;37.30;;;3.30;99.90;;;;;;2072758;28;20029;-69
2021/12/03 00:37:23;;;;;;;46.70;35.78;;;3.30;99.90;;;;;;2072626;28;20176;-69
2021/12/03 00:38:24;;;;;;;46.33;35.55;;;3.30;99.90;;;;;;2072949;28;20084;-69
2021/12/03 00:39:26;;;;;;;49.45;35.80;;;3.30;99.90;;;;;;2072194;28;20073;-69
2021/12/03 00:40:30;;;;;;;45.47;36.00;;;3.30;99.90;;;;;;2064318;28;20478;-69
2021/12/03 00:41:35;;;;;;;44.25;34.08;;;3.30;99.90;;;;;;2070945;28;20451;-69
2021/12/03 00:42:37;;;;;;;49.63;35.50;;;3.30;99.90;;;;;;2072475;28;20033;-69
2021/12/03 00:43:42;;;;;;;47.35;35.85;;;3.30;99.90;;;;;;2072531;28;20045;-69
2021/12/03 00:44:45;;;;;;;43.53;35.40;;;3.30;99.90;;;;;;2072536;28;20022;-69
2021/12/03 00:45:46;;;;;;;41.65;35.25;;;3.30;99.90;;;;;;2072546;28;20026;-69
2021/12/03 00:46:47;;;;;;;44.58;34.10;;;3.30;99.90;;;;;;2072584;28;20030;-69
2021/12/03 00:47:48;;;;;;;45.78;35.97;;;3.30;99.90;;;;;;2072241;28;20026;-69
2021/12/03 00:48:51;;;;;;;44.38;34.30;;;3.30;99.90;;;;;;2074216;28;20022;-69
2021/12/03 00:49:51;;;;;;;46.15;34.70;;;3.30;99.90;;;;;;2071217;28;20064;-69
2021/12/03 00:50:52;;;;;;;41.70;33.85;;;3.20;99.90;;;;;;2071931;28;20084;-69
2021/12/03 00:51:53;;;;;;;56.10;35.47;;;3.30;99.90;;;;;;2072588;28;20093;-69
2021/12/03 00:52:55;;;;;;;43.75;34.30;;;3.20;99.90;;;;;;2072266;28;20034;-69
2021/12/03 00:53:56;;;;;;;43.85;34.15;;;3.20;99.90;;;;;;2072530;28;20022;-69
2021/12/03 00:54:57;;;;;;;46.97;35.90;;;3.20;99.90;;;;;;2072569;28;20025;-70
2021/12/03 00:55:57;;;;;;;42.75;34.45;;;3.30;99.90;;;;;;2072417;28;20037;-69
2021/12/03 00:56:58;;;;;;;47.42;34.20;;;3.20;99.90;;;;;;2072711;28;20022;-69
2021/12/03 00:57:59;;;;;;;43.58;34.33;;;3.30;99.90;;;;;;2072514;28;20029;-69
2021/12/03 00:59:00;;;;;;;45.10;34.25;;;3.20;99.90;;;;;;2072771;28;20490;-69
2021/12/03 01:00:00;;;;;;;43.63;33.75;;;3.20;99.90;;;;;;2071666;28;20428;-69
2021/12/03 01:01:01;;;;;;;42.00;33.00;;;3.20;99.90;;;;;;2072079;28;20126;-69
2021/12/03 01:02:02;;;;;;;39.25;32.85;;;3.20;99.90;;;;;;2072671;28;20066;-69
2021/12/03 01:03:03;;;;;;;40.15;33.83;;;3.30;99.90;;;;;;2072621;28;20037;-69
2021/12/03 01:04:05;;;;;;;40.45;34.28;;;3.20;99.90;;;;;;2072539;28;20069;-69
2021/12/03 01:05:06;;;;;;;41.75;32.67;;;3.20;99.90;;;;;;2072507;28;20022;-69
2021/12/03 01:06:07;;;;;;;40.50;33.17;;;3.20;99.90;;;;;;2072471;28;20030;-69
2021/12/03 01:07:07;;;;;;;44.60;32.97;;;3.20;99.90;;;;;;2072056;28;20028;-69
2021/12/03 01:08:08;;;;;;;40.33;33.28;;;3.20;99.90;;;;;;2072637;28;20129;-69
2021/12/03 01:09:08;;;;;;;35.78;31.65;;;3.20;99.90;;;;;;2072408;28;20421;-69
2021/12/03 01:10:09;;;;;;;36.40;30.88;;;3.20;99.90;;;;;;2071564;28;20046;-69
2021/12/03 01:11:12;;;;;;;38.30;31.40;;;3.20;99.90;;;;;;2072460;28;20033;-69
2021/12/03 01:12:13;;;;;;;42.85;30.98;;;3.20;99.90;;;;;;2072442;28;20409;-69
2021/12/03 01:13:13;;;;;;;40.33;33.03;;;3.20;99.90;;;;;;2072091;28;20064;-69
2021/12/03 01:14:14;;;;;;;41.03;32.65;;;3.20;99.90;;;;;;2072406;28;20022;-69
2021/12/03 01:15:18;;;;;;;39.33;31.42;;;3.20;99.90;;;;;;2072124;28;20095;-69
2021/12/03 01:16:18;;;;;;;37.00;29.60;;;3.10;99.90;;;;;;2072493;28;20025;-69
2021/12/03 01:17:19;;;;;;;34.45;29.60;;;3.10;99.90;;;;;;2072497;28;20017;-69
2021/12/03 01:18:20;;;;;;;36.25;31.02;;;3.10;99.90;;;;;;2072459;28;20090;-69
2021/12/03 01:19:21;;;;;;;36.47;30.35;;;3.10;99.90;;;;;;2072099;28;20029;-69
2021/12/03 01:20:23;;;;;;;38.03;29.20;;;3.10;99.90;;;;;;2071590;28;20029;-69
2021/12/03 01:21:24;;;;;;;35.60;30.27;;;3.10;99.90;;;;;;2072106;28;20576;-69
2021/12/03 01:22:25;;;;;;;37.13;29.02;;;3.10;99.90;;;;;;2072425;28;20494;-69
2021/12/03 01:23:26;;;;;;;35.53;29.00;;;3.10;99.90;;;;;;2072269;28;20026;-69
2021/12/03 01:24:26;;;;;;;36.53;28.98;;;3.10;99.90;;;;;;2072963;28;20029;-69
2021/12/03 01:25:27;;;;;;;36.05;29.02;;;3.10;99.90;;;;;;2072230;28;20105;-69
2021/12/03 01:26:28;;;;;;;32.33;26.83;;;3.10;99.90;;;;;;2072374;28;20453;-69
2021/12/03 01:27:30;;;;;;;33.55;27.27;;;3.10;99.90;;;;;;2072172;28;20076;-69
2021/12/03 01:28:30;;;;;;;31.25;27.83;;;3.10;99.90;;;;;;2072335;28;20041;-69
2021/12/03 01:29:31;;;;;;;31.95;28.17;;;3.10;99.90;;;;;;2070443;28;20019;-69
2021/12/03 01:30:33;;;;;;;36.13;27.67;;;3.10;99.90;;;;;;2072228;28;20021;-69
2021/12/03 01:31:34;;;;;;;33.15;27.55;;;3.10;99.90;;;;;;2071617;28;20421;-69
2021/12/03 01:32:35;;;;;;;33.63;27.20;;;3.10;99.90;;;;;;2072079;28;20053;-69
2021/12/03 01:33:35;;;;;;;31.45;26.70;;;3.10;99.90;;;;;;2074166;28;20041;-69
2021/12/03 01:34:36;;;;;;;37.20;27.65;;;3.10;99.90;;;;;;2076579;28;20414;-69
2021/12/03 01:35:40;;;;;;;35.72;26.85;;;3.10;99.90;;;;;;2071814;28;20026;-69
2021/12/03 01:36:40;;;;;;;31.90;26.60;;;3.10;99.90;;;;;;2072157;28;20030;-70
2021/12/03 01:37:42;;;;;;;32.70;26.80;;;3.10;99.90;;;;;;2072435;28;20061;-69
2021/12/03 01:38:43;;;;;;;33.83;26.67;;;3.10;99.90;;;;;;2072520;28;20045;-69
2021/12/03 01:39:44;;;;;;;36.75;27.08;;;3.10;99.90;;;;;;2071969;28;20033;-69
2021/12/03 01:40:44;;;;;;;35.75;27.80;;;3.10;99.90;;;;;;2071922;28;20104;-69
2021/12/03 01:41:45;;;;;;;42.50;30.13;;;3.10;99.90;;;;;;2072317;28;20050;-69
2021/12/03 01:42:46;;;;;;;40.22;30.00;;;3.10;99.90;;;;;;2072099;28;20056;-69
2021/12/03 01:43:47;;;;;;;37.00;29.42;;;3.10;99.90;;;;;;2071966;28;20113;-69
2021/12/03 01:44:47;;;;;;;36.70;28.65;;;3.10;99.90;;;;;;2071318;28;20049;-69
2021/12/03 01:45:50;;;;;;;38.08;30.50;;;3.10;99.90;;;;;;2071541;28;20026;-69
2021/12/03 01:46:51;;;;;;;41.38;31.83;;;3.10;99.90;;;;;;2072377;28;20018;-69
2021/12/03 01:47:52;;;;;;;39.40;30.63;;;3.10;99.90;;;;;;2072080;28;20052;-69
2021/12/03 01:48:53;;;;;;;42.28;32.38;;;3.20;99.90;;;;;;2072965;28;20030;-69
2021/12/03 01:49:53;;;;;;;39.33;32.47;;;3.10;99.90;;;;;;2071749;28;20033;-69
2021/12/03 01:50:54;;;;;;;42.15;32.92;;;3.20;99.90;;;;;;2071923;28;20045;-69
2021/12/03 01:51:55;;;;;;;41.92;32.80;;;3.10;99.90;;;;;;2072062;28;20363;-69
2021/12/03 01:52:56;;;;;;;45.30;33.95;;;3.20;99.90;;;;;;2072043;28;20033;-70
2021/12/03 01:53:56;;;;;;;44.42;32.92;;;3.20;99.90;;;;;;2072189;28;20026;-70
2021/12/03 01:54:59;;;;;;;45.33;34.40;;;3.20;99.90;;;;;;2071865;28;20467;-69
2021/12/03 01:56:06;;;;;;;47.00;33.85;;;3.20;99.90;;;;;;2071543;28;20105;-69
2021/12/03 01:57:06;;;;;;;42.25;33.50;;;3.20;99.90;;;;;;2071614;28;20052;-70
2021/12/03 01:58:07;;;;;;;43.45;34.13;;;3.20;99.90;;;;;;2072379;28;20030;-70
2021/12/03 01:59:10;;;;;;;45.45;34.95;;;3.20;99.90;;;;;;2071613;28;20026;-70
2021/12/03 02:00:23;;;;;;;43.63;34.10;;;3.20;99.90;;;;;;2071656;28;20848;-70
2021/12/03 02:01:27;;;;;;;44.08;35.05;;;3.20;99.90;;;;;;2072460;28;20080;-69
2021/12/03 02:02:28;;;;;;;41.97;34.08;;;3.20;99.90;;;;;;2072083;28;20450;-70
2021/12/03 02:03:31;;;;;;;47.47;36.55;;;3.20;99.90;;;;;;2072180;28;20037;-69
2021/12/03 02:04:32;;;;;;;43.03;35.83;;;3.20;99.90;;;;;;2072006;28;20085;-69
2021/12/03 02:05:33;;;;;;;44.83;35.63;;;3.20;99.90;;;;;;2071474;28;20788;-70
2021/12/03 02:06:34;;;;;;;42.45;33.85;;;3.30;99.90;;;;;;2072014;28;20414;-70
2021/12/03 02:07:35;;;;;;;47.83;34.85;;;3.30;99.90;;;;;;2072082;28;20050;-70
2021/12/03 02:08:36;;;;;;;45.25;36.60;;;3.30;99.90;;;;;;2072098;28;20089;-70
2021/12/03 02:09:37;;;;;;;45.50;36.25;;;3.30;99.90;;;;;;2070744;28;20014;-70
2021/12/03 02:10:38;;;;;;;48.60;35.25;;;3.30;99.90;;;;;;2070475;28;20064;-70
2021/12/03 02:11:39;;;;;;;46.13;36.67;;;3.40;99.90;;;;;;2071882;28;20018;-70
2021/12/03 02:12:39;;;;;;;45.70;35.35;;;3.40;99.90;;;;;;2079187;28;20025;-70
2021/12/03 02:13:40;;;;;;;41.42;34.65;;;3.40;99.90;;;;;;2079103;28;20108;-70
2021/12/03 02:14:41;;;;;;;47.95;36.00;;;3.40;99.90;;;;;;2072266;28;20033;-70
2021/12/03 02:15:43;;;;;;;44.40;36.13;;;3.40;99.90;;;;;;2071999;28;20030;-70
2021/12/03 02:16:45;;;;;;;48.90;37.47;;;3.40;99.90;;;;;;2079692;28;21004;-70
2021/12/03 02:17:46;;;;;;;44.50;37.53;;;3.40;99.90;;;;;;2079217;28;20033;-70
2021/12/03 02:18:47;;;;;;;50.63;37.72;;;3.40;99.90;;;;;;2071036;28;20066;-70
2021/12/03 02:19:48;;;;;;;46.22;37.55;;;3.40;99.90;;;;;;2071834;28;20029;-70
2021/12/03 02:20:55;;;;;;;47.40;37.28;;;3.50;99.90;;;;;;2070968;28;20033;-70
2021/12/03 02:21:56;;;;;;;44.58;37.28;;;3.50;99.90;;;;;;2071869;28;20026;-70
2021/12/03 02:22:57;;;;;;;50.67;38.88;;;3.50;99.90;;;;;;2071837;28;20402;-69
2021/12/03 02:23:58;;;;;;;50.30;39.65;;;3.50;99.90;;;;;;2071567;28;20022;-69
2021/12/03 02:24:58;;;;;;;44.70;37.10;;;3.50;99.90;;;;;;2072108;28;20386;-70
2021/12/03 02:25:59;;;;;;;49.00;37.40;;;3.50;99.90;;;;;;2072005;28;20034;-70
2021/12/03 02:26:59;;;;;;;48.38;38.47;;;3.50;99.90;;;;;;2071676;28;20057;-70
2021/12/03 02:28:00;;;;;;;48.85;38.13;;;3.60;99.90;;;;;;2071514;28;20478;-70
2021/12/03 02:29:00;;;;;;;48.72;38.33;;;3.60;99.90;;;;;;2072140;28;20037;-70
2021/12/03 02:30:03;;;;;;;46.42;37.47;;;3.60;99.90;;;;;;2071199;28;20131;-70
2021/12/03 02:31:04;;;;;;;45.80;36.85;;;3.60;99.90;;;;;;2071862;28;20034;-70
2021/12/03 02:32:05;;;;;;;48.65;38.47;;;3.60;99.90;;;;;;2071656;28;20716;-70
2021/12/03 02:33:07;;;;;;;52.92;38.90;;;3.60;99.90;;;;;;2072043;28;20032;-70
2021/12/03 02:34:07;;;;;;;52.88;38.97;;;3.60;99.90;;;;;;2077980;28;20059;-70
2021/12/03 02:35:09;;;;;;;46.25;37.10;;;3.60;99.90;;;;;;2072039;28;20042;-70
2021/12/03 02:36:10;;;;;;;46.47;37.70;;;3.70;99.90;;;;;;2071433;28;20037;-70
2021/12/03 02:37:10;;;;;;;49.15;38.42;;;3.60;99.90;;;;;;2071424;28;20056;-70
2021/12/03 02:38:15;;;;;;;48.00;38.97;;;3.60;99.90;;;;;;2071649;28;20045;-70
2021/12/03 02:39:16;;;;;;;47.92;37.10;;;3.70;99.90;;;;;;2064927;28;20048;-71
2021/12/03 02:40:17;;;;;;;49.10;37.75;;;3.60;99.90;;;;;;2077910;28;20555;-70
2021/12/03 02:41:18;;;;;;;48.58;38.47;;;3.70;99.90;;;;;;2075232;28;20060;-70
2021/12/03 02:42:18;;;;;;;47.17;38.33;;;3.70;99.90;;;;;;2077129;28;20036;-70
2021/12/03 02:43:19;;;;;;;51.63;38.20;;;3.60;99.90;;;;;;2071537;28;20057;-70
2021/12/03 02:44:20;;;;;;;46.00;37.13;;;3.70;99.90;;;;;;2076469;28;20157;-70
2021/12/03 02:45:22;;;;;;;48.17;38.17;;;3.70;99.90;;;;;;2071795;28;20224;-70
2021/12/03 02:46:22;;;;;;;48.55;37.78;;;3.70;99.90;;;;;;2071580;28;20041;-70
2021/12/03 02:47:23;;;;;;;45.50;36.40;;;3.70;99.90;;;;;;2071565;28;20026;-70
2021/12/03 02:48:25;;;;;;;50.08;37.97;;;3.70;99.90;;;;;;2078494;28;20169;-70
2021/12/03 02:49:26;;;;;;;44.40;36.35;;;3.70;99.90;;;;;;2073135;28;20034;-70
2021/12/03 02:50:27;;;;;;;48.08;38.13;;;3.70;99.90;;;;;;2069342;28;20686;-70
2021/12/03 02:51:27;;;;;;;48.13;38.55;;;3.70;99.90;;;;;;2066007;28;20426;-70
2021/12/03 02:52:28;;;;;;;49.80;36.78;;;3.80;99.90;;;;;;2074265;28;20018;-70
2021/12/03 02:53:28;;;;;;;46.40;36.78;;;3.80;99.90;;;;;;2079624;28;20373;-70
2021/12/03 02:54:29;;;;;;;47.63;37.65;;;3.70;99.90;;;;;;2076797;28;20021;-70
2021/12/03 02:55:30;;;;;;;44.67;38.25;;;3.70;99.90;;;;;;2076710;28;20075;-70
2021/12/03 02:56:30;;;;;;;47.22;38.17;;;3.70;99.90;;;;;;2075564;28;20010;-70
2021/12/03 02:57:32;;;;;;;50.67;37.13;;;3.70;99.90;;;;;;2075917;28;20752;-70
2021/12/03 02:58:33;;;;;;;46.40;37.08;;;3.70;99.90;;;;;;2074930;28;20025;-70
2021/12/03 02:59:34;;;;;;;42.25;36.10;;;3.80;99.90;;;;;;2075517;28;20543;-70
2021/12/03 03:00:35;;;;;;;49.22;37.53;;;3.80;99.90;;;;;;2071849;28;20672;-70
2021/12/03 03:01:36;;;;;;;47.40;37.05;;;3.70;99.90;;;;;;2071563;28;20092;-70
2021/12/03 03:02:37;;;;;;;48.22;37.30;;;3.80;99.90;;;;;;2074332;28;20101;-70
2021/12/03 03:03:38;;;;;;;48.17;38.05;;;3.80;99.90;;;;;;2075194;28;20022;-70
2021/12/03 03:04:38;;;;;;;44.40;35.05;;;3.80;99.90;;;;;;2076659;28;20056;-70
2021/12/03 03:05:39;;;;;;;45.42;37.50;;;3.80;99.90;;;;;;2073859;28;20018;-70
2021/12/03 03:06:39;;;;;;;44.22;35.78;;;3.80;99.90;;;;;;2071134;28;20018;-70
2021/12/03 03:07:40;;;;;;;46.88;37.35;;;3.80;99.90;;;;;;2076465;28;20458;-70
2021/12/03 03:08:43;;;;;;;51.40;37.25;;;3.80;99.90;;;;;;2071679;28;20018;-70
2021/12/03 03:09:45;;;;;;;48.38;36.45;;;3.80;99.90;;;;;;2071781;28;20017;-70
2021/12/03 03:10:46;;;;;;;44.08;36.63;;;3.80;99.90;;;;;;2071082;28;20106;-70
2021/12/03 03:11:47;;;;;;;46.25;37.67;;;3.80;99.90;;;;;;2071681;28;20037;-70
2021/12/03 03:12:47;;;;;;;44.70;36.80;;;3.80;99.90;;;;;;2071524;28;20452;-70
2021/12/03 03:13:48;;;;;;;43.88;36.50;;;3.80;99.90;;;;;;2074442;28;20057;-70
2021/12/03 03:14:58;;;;;;;44.88;36.63;;;3.90;99.90;;;;;;2071393;28;20033;-70
2021/12/03 03:15:58;;;;;;;42.15;35.13;;;3.90;99.90;;;;;;2071863;28;20017;-71
2021/12/03 03:16:59;;;;;;;45.55;36.50;;;3.90;99.90;;;;;;2070774;28;20026;-70
2021/12/03 03:18:11;;;;;;;45.08;36.85;;;3.90;99.90;;;;;;2071599;28;20032;-70
2021/12/03 03:19:13;;;;;;;44.05;35.47;;;3.90;99.90;;;;;;2071101;28;20038;-71
2021/12/03 03:20:15;;;;;;;44.00;34.90;;;3.90;99.90;;;;;;2070994;28;20032;-71
2021/12/03 03:21:15;;;;;;;48.13;37.13;;;3.90;99.90;;;;;;2071496;28;20466;-70
2021/12/03 03:22:17;;;;;;;46.00;37.45;;;3.80;99.90;;;;;;2071388;28;20364;-70
2021/12/03 03:23:18;;;;;;;46.67;35.72;;;3.90;99.90;;;;;;2071219;28;20026;-71
2021/12/03 03:24:19;;;;;;;46.83;37.50;;;3.80;99.90;;;;;;2073192;28;20069;-70
2021/12/03 03:25:20;;;;;;;44.03;35.10;;;3.90;99.90;;;;;;2071157;28;20501;-70
2021/12/03 03:26:21;;;;;;;47.08;36.53;;;3.80;99.90;;;;;;2068497;28;20378;-70
2021/12/03 03:27:21;;;;;;;44.50;36.47;;;3.80;99.90;;;;;;2077899;28;20053;-71
2021/12/03 03:28:23;;;;;;;49.33;36.35;;;3.80;99.90;;;;;;2074272;28;20025;-71
2021/12/03 03:29:23;;;;;;;50.28;38.08;;;3.80;99.90;;;;;;2071201;28;20026;-70
2021/12/03 03:30:24;;;;;;;49.15;37.67;;;3.80;99.90;;;;;;2072174;28;20080;-70
2021/12/03 03:31:25;;;;;;;48.08;38.75;;;3.80;99.90;;;;;;2074608;28;20087;-70
2021/12/03 03:32:27;;;;;;;54.97;38.95;;;3.90;99.90;;;;;;2071451;28;20034;-70
2021/12/03 03:33:28;;;;;;;47.35;36.50;;;3.90;99.90;;;;;;2071452;28;20017;-71
2021/12/03 03:34:29;;;;;;;52.60;38.97;;;3.90;99.90;;;;;;2071318;28;20466;-71
2021/12/03 03:35:31;;;;;;;49.47;38.53;;;3.90;99.90;;;;;;2078994;28;20593;-71
2021/12/03 03:36:32;;;;;;;51.20;38.63;;;3.90;99.90;;;;;;2072527;28;20014;-71
2021/12/03 03:37:34;;;;;;;54.78;40.25;;;3.90;99.90;;;;;;2071308;28;20403;-71
2021/12/03 03:38:35;;;;;;;51.47;39.25;;;3.90;99.90;;;;;;2071482;28;20026;-71
2021/12/03 03:39:36;;;;;;;49.88;39.05;;;3.90;99.90;;;;;;2071372;28;20026;-71
2021/12/03 03:40:38;;;;;;;53.25;38.38;;;3.90;99.90;;;;;;2070985;28;20030;-71
2021/12/03 03:41:41;;;;;;;50.83;38.50;;;3.90;99.90;;;;;;2071543;28;20018;-71
2021/12/03 03:42:41;;;;;;;51.35;40.30;;;3.90;99.90;;;;;;2071388;28;20065;-71
2021/12/03 03:43:42;;;;;;;49.53;38.90;;;3.90;99.90;;;;;;2076480;28;20092;-71
2021/12/03 03:44:42;;;;;;;52.70;38.72;;;3.90;99.90;;;;;;2072211;28;20080;-71
2021/12/03 03:45:44;;;;;;;52.60;38.80;;;3.90;99.90;;;;;;2071215;28;20029;-72
2021/12/03 03:46:48;;;;;;;55.20;40.65;;;3.90;99.90;;;;;;2071087;28;20049;-72
2021/12/03 03:47:50;;;;;;;55.28;41.22;;;3.90;99.90;;;;;;2071447;28;20434;-71
2021/12/03 03:48:51;;;;;;;51.08;40.58;;;3.90;99.90;;;;;;2071431;28;20026;-71
2021/12/03 03:49:52;;;;;;;56.28;40.85;;;3.90;99.90;;;;;;2071157;28;20030;-71
2021/12/03 03:50:53;;;;;;;51.88;39.47;;;3.90;99.90;;;;;;2070729;28;20033;-71
2021/12/03 03:51:55;;;;;;;59.28;40.75;;;3.90;99.90;;;;;;2071512;28;20092;-71
2021/12/03 03:52:56;;;;;;;52.97;39.30;;;3.90;99.90;;;;;;2071054;28;20481;-72
2021/12/03 03:53:57;;;;;;;48.42;37.20;;;3.90;99.90;;;;;;2071400;28;20048;-71
2021/12/03 03:54:57;;;;;;;49.33;38.05;;;3.90;99.90;;;;;;2071571;28;20683;-71
2021/12/03 03:55:58;;;;;;;55.05;38.50;;;3.90;99.90;;;;;;2070866;28;20022;-71
2021/12/03 03:57:00;;;;;;;54.30;40.72;;;3.90;99.90;;;;;;2070497;28;20025;-71
2021/12/03 03:58:03;;;;;;;48.30;37.30;;;3.90;99.90;;;;;;2071568;28;20030;-71
2021/12/03 03:59:03;;;;;;;49.75;37.90;;;3.90;99.90;;;;;;2072416;28;20490;-72
2021/12/03 04:00:07;;;;;;;53.70;38.47;;;3.90;99.90;;;;;;2071426;28;20387;-71
2021/12/03 04:01:12;;;;;;;56.70;39.13;;;3.90;99.90;;;;;;2071090;28;20366;-71
2021/12/03 04:02:13;;;;;;;51.75;39.13;;;3.90;99.90;;;;;;2071783;28;20029;-71
2021/12/03 04:03:14;;;;;;;51.85;38.47;;;3.90;99.90;;;;;;2071034;28;20025;-72
2021/12/03 04:04:15;;;;;;;53.53;38.70;;;3.90;99.90;;;;;;2071489;28;20034;-72
2021/12/03 04:05:16;;;;;;;53.25;38.83;;;3.90;99.90;;;;;;2071191;28;20057;-72
2021/12/03 04:06:18;;;;;;;54.75;39.13;;;3.90;99.90;;;;;;2071226;28;20018;-72
2021/12/03 04:07:19;;;;;;;56.30;39.42;;;3.90;99.90;;;;;;2071462;28;20137;-72
2021/12/03 04:08:20;;;;;;;55.85;39.15;;;3.90;99.90;;;;;;2071481;28;20041;-72
2021/12/03 04:09:21;;;;;;;55.50;37.80;;;3.90;99.90;;;;;;2070849;28;20026;-72
2021/12/03 04:10:22;;;;;;;56.95;38.67;;;3.90;99.90;;;;;;2068158;28;20423;-72
2021/12/03 04:11:23;;;;;;;51.70;37.92;;;3.90;99.90;;;;;;2071251;28;20044;-72
2021/12/03 04:12:24;;;;;;;52.13;37.42;;;3.90;99.90;;;;;;2071333;28;20145;-72
2021/12/03 04:13:27;;;;;;;54.53;38.40;;;4.00;99.90;;;;;;2071012;28;20494;-72
2021/12/03 04:14:27;;;;;;;54.65;39.10;;;4.00;99.90;;;;;;2071533;28;20104;-72
2021/12/03 04:15:28;;;;;;;55.42;39.08;;;4.00;99.90;;;;;;2071061;28;20029;-71
2021/12/03 04:16:30;;;;;;;54.40;39.50;;;4.00;99.90;;;;;;2071341;28;20460;-72
2021/12/03 04:17:31;;;;;;;58.58;39.38;;;4.00;99.90;;;;;;2071076;28;20485;-71
2021/12/03 04:18:31;;;;;;;56.33;37.63;;;4.00;99.90;;;;;;2071352;28;20421;-72
2021/12/03 04:19:32;;;;;;;56.78;38.85;;;4.00;99.90;;;;;;2071309;28;20076;-72
2021/12/03 04:20:33;;;;;;;57.67;36.90;;;4.00;99.90;;;;;;2070824;28;20054;-72
2021/12/03 04:21:33;;;;;;;49.58;35.92;;;4.00;99.90;;;;;;2071092;28;20145;-72
2021/12/03 04:22:34;;;;;;;54.60;37.38;;;4.00;99.90;;;;;;2071075;28;20034;-72
2021/12/03 04:23:35;;;;;;;53.47;37.13;;;4.00;99.90;;;;;;2071058;28;20033;-72
2021/12/03 04:24:36;;;;;;;56.78;38.50;;;4.00;99.90;;;;;;2071562;28;20025;-72
2021/12/03 04:25:36;;;;;;;57.92;38.35;;;4.00;99.90;;;;;;2070283;28;20116;-72
2021/12/03 04:26:37;;;;;;;53.28;36.85;;;4.00;99.90;;;;;;2070353;28;20061;-72
2021/12/03 04:27:38;;;;;;;55.83;36.70;;;4.00;99.90;;;;;;2071369;28;20093;-72
2021/12/03 04:28:38;;;;;;;54.45;37.22;;;4.00;99.90;;;;;;2070504;28;20095;-71
2021/12/03 04:29:39;;;;;;;56.95;35.50;;;4.10;99.90;;;;;;2070563;28;20029;-71
2021/12/03 04:30:40;;;;;;;48.22;35.38;;;4.00;99.90;;;;;;2070782;28;20029;-71
2021/12/03 04:31:41;;;;;;;51.20;37.47;;;4.00;99.90;;;;;;2070259;28;20034;-71
2021/12/03 04:32:42;;;;;;;55.08;37.67;;;4.10;99.90;;;;;;2069173;28;20125;-72
2021/12/03 04:33:43;;;;;;;53.03;36.08;;;4.10;99.90;;;;;;2071002;28;20061;-72
2021/12/03 04:34:44;;;;;;;56.33;38.15;;;4.10;99.90;;;;;;2075035;28;20029;-72
2021/12/03 04:35:45;;;;;;;54.97;35.92;;;4.10;99.90;;;;;;2079233;28;20381;-72
2021/12/03 04:36:45;;;;;;;56.58;36.90;;;4.10;99.90;;;;;;2071652;28;20049;-72
2021/12/03 04:37:46;;;;;;;49.05;34.38;;;4.10;99.90;;;;;;2071453;28;20100;-72
2021/12/03 04:38:47;;;;;;;50.55;33.90;;;4.10;99.90;;;;;;2071325;28;20030;-72
2021/12/03 04:39:48;;;;;;;50.33;35.33;;;4.10;99.90;;;;;;2068914;28;20639;-72
2021/12/03 04:40:49;;;;;;;55.78;36.63;;;4.10;99.90;;;;;;2075904;28;20037;-72
2021/12/03 04:41:49;;;;;;;53.78;35.40;;;4.10;99.90;;;;;;2071404;28;20021;-71
2021/12/03 04:42:50;;;;;;;53.80;36.35;;;4.10;99.90;;;;;;2072525;28;20119;-71
2021/12/03 04:43:51;;;;;;;54.25;36.22;;;4.10;99.90;;;;;;2072069;28;20026;-72
2021/12/03 04:44:52;;;;;;;54.13;34.15;;;4.10;99.90;;;;;;2071720;28;20057;-72
2021/12/03 04:45:52;;;;;;;49.47;34.53;;;4.10;99.90;;;;;;2072515;28;20033;-72
2021/12/03 04:46:53;;;;;;;53.00;35.55;;;4.10;99.90;;;;;;2072486;28;20026;-72
2021/12/03 04:47:54;;;;;;;55.20;35.17;;;4.20;99.90;;;;;;2072038;28;20041;-72
2021/12/03 04:48:55;;;;;;;52.83;35.75;;;4.20;99.90;;;;;;2072014;28;20105;-72
2021/12/03 04:49:55;;;;;;;54.30;35.85;;;4.20;99.90;;;;;;2087873;28;20079;-72
2021/12/03 04:50:56;;;;;;;52.03;34.85;;;4.20;99.90;;;;;;2072399;28;20057;-72
2021/12/03 04:51:57;;;;;;;46.35;33.13;;;4.20;99.90;;;;;;2080386;28;20025;-72
2021/12/03 04:52:58;;;;;;;49.20;33.88;;;4.20;99.90;;;;;;2073800;28;20026;-72
2021/12/03 04:53:58;;;;;;;51.13;34.13;;;4.20;99.90;;;;;;2072643;28;20520;-71
2021/12/03 04:54:59;;;;;;;51.22;32.25;;;4.20;99.90;;;;;;2072546;28;20040;-72
2021/12/03 04:56:00;;;;;;;51.03;34.92;;;4.20;99.90;;;;;;2072710;28;20109;-72
2021/12/03 04:57:00;;;;;;;51.78;33.25;;;4.20;99.90;;;;;;2072239;28;20030;-72
2021/12/03 04:58:01;;;;;;;51.05;32.55;;;4.20;99.90;;;;;;2071787;28;20034;-72
2021/12/03 04:59:03;;;;;;;46.45;31.33;;;4.20;99.90;;;;;;2073186;28;20668;-72
2021/12/03 05:00:07;;;;;;;47.78;32.10;;;4.20;99.90;;;;;;2072626;28;20398;-72
2021/12/03 05:01:07;;;;;;;48.03;33.03;;;4.20;99.90;;;;;;2063864;28;20049;-72
2021/12/03 05:02:08;;;;;;;46.45;32.35;;;4.20;99.90;;;;;;2068394;28;20030;-72
2021/12/03 05:03:09;;;;;;;53.05;31.80;;;4.20;99.90;;;;;;2072197;28;20390;-71
2021/12/03 05:04:10;;;;;;;43.92;29.67;;;4.20;99.90;;;;;;2072689;28;20034;-75
2021/12/03 05:05:11;;;;;;;46.22;30.25;;;4.20;99.90;;;;;;2072585;28;20116;-72
2021/12/03 05:06:16;;;;;;;42.70;28.45;;;4.20;99.90;;;;;;2072490;28;20105;-72
2021/12/03 05:07:28;;;;;;;41.70;28.60;;;4.20;99.90;;;;;;2071906;28;20021;-72
2021/12/03 05:08:30;;;;;;;40.17;27.80;;;4.30;99.90;;;;;;2072833;28;20088;-71
2021/12/03 05:09:31;;;;;;;42.15;28.40;;;4.20;99.90;;;;;;2071899;28;20371;-72
2021/12/03 05:10:36;;;;;;;40.08;28.42;;;4.20;99.90;;;;;;2070448;28;20022;-72
2021/12/03 05:11:36;;;;;;;42.03;28.17;;;4.30;99.90;;;;;;2071336;28;20026;-72
2021/12/03 05:12:37;;;;;;;43.20;28.80;;;4.20;99.90;;;;;;2072113;28;20041;-71
2021/12/03 05:13:38;;;;;;;43.25;30.70;;;4.30;99.90;;;;;;2071981;28;20029;-71
2021/12/03 05:14:38;;;;;;;40.05;28.88;;;4.30;99.90;;;;;;2072507;28;20034;-71